sensor_id;sensor_type;location;lat;lon;timestamp;temperature;humidity
24645;DHT22;12780;45.502;9.146;2023-01-08T00:02:02;10.40;99.90
24645;DHT22;12780;45.502;9.146;2023-01-08T00:04:27;10.40;99.90
24645;DHT22;12780;45.502;9.146;2023-01-08T00:06:53;10.40;99.90
24645;DHT22;12780;45.502;9.146;2023-01-08T00:09:18;10.70;99.90
24645;DHT22;12780;45.502;9.146;2023-01-08T00:11:44;10.60;99.90
24645;DHT22;12780;45.502;9.146;2023-01-08T00:14:10;10.60;99.90
24645;DHT22;12780;45.502;9.146;2023-01-08T00:16:36;10.60;99.90
24645;DHT22;12780;45.502;9.146;2023-01-08T00:19:02;10.60;99.90
24645;DHT22;12780;45.502;9.146;2023-01-08T00:21:28;10.60;99.90
24645;DHT22;12780;45.502;9.146;2023-01-08T00:23:54;10.60;99.90
24645;DHT22;12780;45.502;9.146;2023-01-08T00:26:19;10.60;99.90
24645;DHT22;12780;45.502;9.146;2023-01-08T00:28:45;10.60;99.90
24645;DHT22;12780;45.502;9.146;2023-01-08T00:31:11;10.60;99.90
24645;DHT22;12780;45.502;9.146;2023-01-08T00:33:38;10.60;99.90
24645;DHT22;12780;45.502;9.146;2023-01-08T00:36:12;10.60;99.90
24645;DHT22;12780;45.502;9.146;2023-01-08T00:38:38;10.70;99.90
24645;DHT22;12780;45.502;9.146;2023-01-08T00:41:04;10.60;99.90
24645;DHT22;12780;45.502;9.146;2023-01-08T00:43:29;10.60;99.90
24645;DHT22;12780;45.502;9.146;2023-01-08T00:45:55;10.70;99.90
24645;DHT22;12780;45.502;9.146;2023-01-08T00:48:21;10.70;99.90
24645;DHT22;12780;45.502;9.146;2023-01-08T00:50:47;10.70;99.90
24645;DHT22;12780;45.502;9.146;2023-01-08T00:53:13;10.70;99.90
24645;DHT22;12780;45.502;9.146;2023-01-08T00:55:38;10.70;99.90
24645;DHT22;12780;45.502;9.146;2023-01-08T00:58:04;10.70;99.90
24645;DHT22;12780;45.502;9.146;2023-01-08T01:00:30;10.70;99.90
24645;DHT22;12780;45.502;9.146;2023-01-08T01:02:55;10.70;99.90
24645;DHT22;12780;45.502;9.146;2023-01-08T01:05:21;10.80;99.90
24645;DHT22;12780;45.502;9.146;2023-01-08T01:07:46;10.70;99.90
24645;DHT22;12780;45.502;9.146;2023-01-08T01:10:14;10.70;99.90
24645;DHT22;12780;45.502;9.146;2023-01-08T01:12:41;10.70;99.90
24645;DHT22;12780;45.502;9.146;2023-01-08T01:15:08;10.70;99.90
24645;DHT22;12780;45.502;9.146;2023-01-08T01:17:36;10.60;99.90
24645;DHT22;12780;45.502;9.146;2023-01-08T01:20:02;10.60;99.90
24645;DHT22;12780;45.502;9.146;2023-01-08T01:22:28;10.60;99.90
24645;DHT22;12780;45.502;9.146;2023-01-08T01:24:53;10.60;99.90
24645;DHT22;12780;45.502;9.146;2023-01-08T01:27:19;10.60;99.90
24645;DHT22;12780;45.502;9.146;2023-01-08T01:29:44;10.60;99.90
24645;DHT22;12780;45.502;9.146;2023-01-08T01:32:10;10.70;99.90
24645;DHT22;12780;45.502;9.146;2023-01-08T01:34:35;10.60;99.90
24645;DHT22;12780;45.502;9.146;2023-01-08T01:37:01;10.70;99.90
24645;DHT22;12780;45.502;9.146;2023-01-08T01:39:26;10.70;99.90
24645;DHT22;12780;45.502;9.146;2023-01-08T01:41:52;10.70;99.90
24645;DHT22;12780;45.502;9.146;2023-01-08T01:47:06;10.60;99.90
24645;DHT22;12780;45.502;9.146;2023-01-08T01:49:33;10.70;99.90
24645;DHT22;12780;45.502;9.146;2023-01-08T01:52:00;10.50;99.90
24645;DHT22;12780;45.502;9.146;2023-01-08T01:54:28;10.40;99.90
24645;DHT22;12780;45.502;9.146;2023-01-08T01:56:55;10.40;99.90
24645;DHT22;12780;45.502;9.146;2023-01-08T01:59:21;10.40;99.90
24645;DHT22;12780;45.502;9.146;2023-01-08T02:01:47;10.30;99.90
24645;DHT22;12780;45.502;9.146;2023-01-08T02:04:14;10.20;99.90
24645;DHT22;12780;45.502;9.146;2023-01-08T02:09:42;10.20;99.90
24645;DHT22;12780;45.502;9.146;2023-01-08T02:15:02;10.30;99.90
24645;DHT22;12780;45.502;9.146;2023-01-08T02:18:01;10.30;99.90
24645;DHT22;12780;45.502;9.146;2023-01-08T02:20:39;10.30;99.90
24645;DHT22;12780;45.502;9.146;2023-01-08T02:23:26;10.30;99.90
24645;DHT22;12780;45.502;9.146;2023-01-08T02:26:09;10.40;99.90
24645;DHT22;12780;45.502;9.146;2023-01-08T02:28:51;10.40;99.90
24645;DHT22;12780;45.502;9.146;2023-01-08T02:31:19;10.40;99.90
24645;DHT22;12780;45.502;9.146;2023-01-08T02:33:45;10.40;99.90
24645;DHT22;12780;45.502;9.146;2023-01-08T02:39:03;10.40;99.90
24645;DHT22;12780;45.502;9.146;2023-01-08T02:41:40;10.40;99.90
24645;DHT22;12780;45.502;9.146;2023-01-08T02:44:12;10.40;99.90
24645;DHT22;12780;45.502;9.146;2023-01-08T02:46:42;10.40;99.90
24645;DHT22;12780;45.502;9.146;2023-01-08T02:49:10;10.40;99.90
24645;DHT22;12780;45.502;9.146;2023-01-08T02:51:42;10.30;99.90
24645;DHT22;12780;45.502;9.146;2023-01-08T02:54:13;10.30;99.90
24645;DHT22;12780;45.502;9.146;2023-01-08T02:56:46;10.20;99.90
24645;DHT22;12780;45.502;9.146;2023-01-08T02:59:15;10.10;99.90
24645;DHT22;12780;45.502;9.146;2023-01-08T03:01:41;10.00;99.90
24645;DHT22;12780;45.502;9.146;2023-01-08T03:04:16;9.90;99.90
24645;DHT22;12780;45.502;9.146;2023-01-08T03:06:43;9.90;99.90
24645;DHT22;12780;45.502;9.146;2023-01-08T03:09:09;9.90;99.90
24645;DHT22;12780;45.502;9.146;2023-01-08T03:11:42;9.90;99.90
24645;DHT22;12780;45.502;9.146;2023-01-08T03:14:24;10.00;99.90
24645;DHT22;12780;45.502;9.146;2023-01-08T03:17:06;10.10;99.90
24645;DHT22;12780;45.502;9.146;2023-01-08T03:19:42;10.20;99.90
24645;DHT22;12780;45.502;9.146;2023-01-08T03:22:11;10.20;99.90
24645;DHT22;12780;45.502;9.146;2023-01-08T03:24:38;10.20;99.90
24645;DHT22;12780;45.502;9.146;2023-01-08T03:27:07;10.20;99.90
24645;DHT22;12780;45.502;9.146;2023-01-08T03:29:35;10.20;99.90
24645;DHT22;12780;45.502;9.146;2023-01-08T03:32:04;10.20;99.90
24645;DHT22;12780;45.502;9.146;2023-01-08T03:34:32;10.20;99.90
24645;DHT22;12780;45.502;9.146;2023-01-08T03:37:02;10.20;99.90
24645;DHT22;12780;45.502;9.146;2023-01-08T03:39:32;10.20;99.90
24645;DHT22;12780;45.502;9.146;2023-01-08T03:42:03;10.30;99.90
24645;DHT22;12780;45.502;9.146;2023-01-08T03:44:30;10.40;99.90
24645;DHT22;12780;45.502;9.146;2023-01-08T03:46:56;10.40;99.90
24645;DHT22;12780;45.502;9.146;2023-01-08T03:49:24;10.40;99.90
24645;DHT22;12780;45.502;9.146;2023-01-08T03:51:50;10.20;99.90
24645;DHT22;12780;45.502;9.146;2023-01-08T03:54:30;10.20;99.90
24645;DHT22;12780;45.502;9.146;2023-01-08T03:56:56;10.10;99.90
24645;DHT22;12780;45.502;9.146;2023-01-08T03:59:22;9.90;99.90
24645;DHT22;12780;45.502;9.146;2023-01-08T04:01:48;9.90;99.90
24645;DHT22;12780;45.502;9.146;2023-01-08T04:04:13;10.00;99.90
24645;DHT22;12780;45.502;9.146;2023-01-08T04:06:39;10.00;99.90
24645;DHT22;12780;45.502;9.146;2023-01-08T04:09:05;10.00;99.90
24645;DHT22;12780;45.502;9.146;2023-01-08T04:11:31;10.00;99.90
24645;DHT22;12780;45.502;9.146;2023-01-08T04:13:56;10.10;99.90
24645;DHT22;12780;45.502;9.146;2023-01-08T04:16:22;10.00;99.90
24645;DHT22;12780;45.502;9.146;2023-01-08T04:18:47;10.10;99.90
24645;DHT22;12780;45.502;9.146;2023-01-08T04:21:13;9.90;99.90
24645;DHT22;12780;45.502;9.146;2023-01-08T04:23:38;9.80;99.90
24645;DHT22;12780;45.502;9.146;2023-01-08T04:26:05;9.80;99.90
24645;DHT22;12780;45.502;9.146;2023-01-08T04:28:31;9.80;99.90
24645;DHT22;12780;45.502;9.146;2023-01-08T04:30:56;9.80;99.90
24645;DHT22;12780;45.502;9.146;2023-01-08T04:33:22;9.90;99.90
24645;DHT22;12780;45.502;9.146;2023-01-08T04:35:47;10.00;99.90
24645;DHT22;12780;45.502;9.146;2023-01-08T04:38:13;10.00;99.90
24645;DHT22;12780;45.502;9.146;2023-01-08T04:40:38;10.00;99.90
24645;DHT22;12780;45.502;9.146;2023-01-08T04:43:04;10.10;99.90
24645;DHT22;12780;45.502;9.146;2023-01-08T04:45:29;10.10;99.90
24645;DHT22;12780;45.502;9.146;2023-01-08T04:47:56;10.00;99.90
24645;DHT22;12780;45.502;9.146;2023-01-08T04:50:22;10.00;99.90
24645;DHT22;12780;45.502;9.146;2023-01-08T04:52:47;10.00;99.90
24645;DHT22;12780;45.502;9.146;2023-01-08T04:55:13;10.00;99.90
24645;DHT22;12780;45.502;9.146;2023-01-08T04:57:39;9.90;99.90
24645;DHT22;12780;45.502;9.146;2023-01-08T05:00:05;9.90;99.90
24645;DHT22;12780;45.502;9.146;2023-01-08T05:02:31;9.90;99.90
24645;DHT22;12780;45.502;9.146;2023-01-08T05:04:56;10.00;99.90
24645;DHT22;12780;45.502;9.146;2023-01-08T05:07:22;10.10;99.90
24645;DHT22;12780;45.502;9.146;2023-01-08T05:09:47;10.20;99.90
24645;DHT22;12780;45.502;9.146;2023-01-08T05:12:13;10.10;99.90
24645;DHT22;12780;45.502;9.146;2023-01-08T05:14:38;10.30;99.90
24645;DHT22;12780;45.502;9.146;2023-01-08T05:17:04;10.30;99.90
24645;DHT22;12780;45.502;9.146;2023-01-08T05:19:29;10.40;99.90
24645;DHT22;12780;45.502;9.146;2023-01-08T05:21:55;10.40;99.90
24645;DHT22;12780;45.502;9.146;2023-01-08T05:24:20;10.40;99.90
24645;DHT22;12780;45.502;9.146;2023-01-08T05:26:46;10.40;99.90
24645;DHT22;12780;45.502;9.146;2023-01-08T05:29:11;10.50;99.90
24645;DHT22;12780;45.502;9.146;2023-01-08T05:31:37;10.50;99.90
24645;DHT22;12780;45.502;9.146;2023-01-08T05:34:02;10.50;99.90
24645;DHT22;12780;45.502;9.146;2023-01-08T05:36:28;10.50;99.90
24645;DHT22;12780;45.502;9.146;2023-01-08T05:38:55;10.50;99.90
24645;DHT22;12780;45.502;9.146;2023-01-08T05:41:21;10.50;99.90
24645;DHT22;12780;45.502;9.146;2023-01-08T05:43:46;10.50;99.90
24645;DHT22;12780;45.502;9.146;2023-01-08T05:46:12;10.50;99.90
24645;DHT22;12780;45.502;9.146;2023-01-08T05:48:37;10.60;99.90
24645;DHT22;12780;45.502;9.146;2023-01-08T05:51:03;10.70;99.90
24645;DHT22;12780;45.502;9.146;2023-01-08T05:53:29;10.60;99.90
24645;DHT22;12780;45.502;9.146;2023-01-08T05:55:58;10.80;99.90
24645;DHT22;12780;45.502;9.146;2023-01-08T05:58:24;10.60;99.90
24645;DHT22;12780;45.502;9.146;2023-01-08T06:00:51;10.50;99.90
24645;DHT22;12780;45.502;9.146;2023-01-08T06:03:22;10.60;99.90
24645;DHT22;12780;45.502;9.146;2023-01-08T06:05:48;10.60;99.90
24645;DHT22;12780;45.502;9.146;2023-01-08T06:08:14;10.60;99.90
24645;DHT22;12780;45.502;9.146;2023-01-08T06:10:40;10.60;99.90
24645;DHT22;12780;45.502;9.146;2023-01-08T06:13:07;10.60;99.90
24645;DHT22;12780;45.502;9.146;2023-01-08T06:15:33;10.60;99.90
24645;DHT22;12780;45.502;9.146;2023-01-08T06:18:02;10.60;99.90
24645;DHT22;12780;45.502;9.146;2023-01-08T06:20:27;10.60;99.90
24645;DHT22;12780;45.502;9.146;2023-01-08T06:22:53;10.50;99.90
24645;DHT22;12780;45.502;9.146;2023-01-08T06:25:18;10.50;99.90
24645;DHT22;12780;45.502;9.146;2023-01-08T06:27:48;10.40;99.90
24645;DHT22;12780;45.502;9.146;2023-01-08T06:30:14;10.40;99.90
24645;DHT22;12780;45.502;9.146;2023-01-08T06:32:40;10.30;99.90
24645;DHT22;12780;45.502;9.146;2023-01-08T06:35:05;10.30;99.90
24645;DHT22;12780;45.502;9.146;2023-01-08T06:37:31;10.30;99.90
24645;DHT22;12780;45.502;9.146;2023-01-08T06:39:56;10.30;99.90
24645;DHT22;12780;45.502;9.146;2023-01-08T06:42:22;10.30;99.90
24645;DHT22;12780;45.502;9.146;2023-01-08T06:44:48;10.30;99.90
24645;DHT22;12780;45.502;9.146;2023-01-08T06:47:13;10.30;99.90
24645;DHT22;12780;45.502;9.146;2023-01-08T06:49:39;10.20;99.90
24645;DHT22;12780;45.502;9.146;2023-01-08T06:52:04;10.20;99.90
24645;DHT22;12780;45.502;9.146;2023-01-08T06:54:30;10.10;99.90
24645;DHT22;12780;45.502;9.146;2023-01-08T06:56:55;10.00;99.90
24645;DHT22;12780;45.502;9.146;2023-01-08T06:59:21;9.90;99.90
24645;DHT22;12780;45.502;9.146;2023-01-08T07:01:46;9.80;99.90
24645;DHT22;12780;45.502;9.146;2023-01-08T07:04:12;9.80;99.90
24645;DHT22;12780;45.502;9.146;2023-01-08T07:06:38;9.70;99.90
24645;DHT22;12780;45.502;9.146;2023-01-08T07:09:03;9.80;99.90
24645;DHT22;12780;45.502;9.146;2023-01-08T07:11:29;9.80;99.90
24645;DHT22;12780;45.502;9.146;2023-01-08T07:13:55;9.80;99.90
24645;DHT22;12780;45.502;9.146;2023-01-08T07:16:21;9.90;99.90
24645;DHT22;12780;45.502;9.146;2023-01-08T07:18:46;10.00;99.90
24645;DHT22;12780;45.502;9.146;2023-01-08T07:21:12;10.00;99.90
24645;DHT22;12780;45.502;9.146;2023-01-08T07:23:37;10.10;99.90
24645;DHT22;12780;45.502;9.146;2023-01-08T07:26:05;10.20;99.90
24645;DHT22;12780;45.502;9.146;2023-01-08T07:28:31;10.10;99.90
24645;DHT22;12780;45.502;9.146;2023-01-08T07:30:57;10.10;99.90
24645;DHT22;12780;45.502;9.146;2023-01-08T07:33:26;10.20;99.90
24645;DHT22;12780;45.502;9.146;2023-01-08T07:35:55;10.20;99.90
24645;DHT22;12780;45.502;9.146;2023-01-08T07:38:21;10.20;99.90
24645;DHT22;12780;45.502;9.146;2023-01-08T07:40:47;10.20;99.90
24645;DHT22;12780;45.502;9.146;2023-01-08T07:43:13;10.20;99.90
24645;DHT22;12780;45.502;9.146;2023-01-08T07:45:39;10.20;99.90
24645;DHT22;12780;45.502;9.146;2023-01-08T07:48:05;10.20;99.90
24645;DHT22;12780;45.502;9.146;2023-01-08T07:50:31;10.10;99.90
24645;DHT22;12780;45.502;9.146;2023-01-08T07:53:00;10.00;99.90
24645;DHT22;12780;45.502;9.146;2023-01-08T07:55:27;10.00;99.90
24645;DHT22;12780;45.502;9.146;2023-01-08T07:57:53;10.10;99.90
24645;DHT22;12780;45.502;9.146;2023-01-08T08:00:19;10.00;99.90
24645;DHT22;12780;45.502;9.146;2023-01-08T08:02:45;10.00;99.90
24645;DHT22;12780;45.502;9.146;2023-01-08T08:05:10;10.00;99.90
24645;DHT22;12780;45.502;9.146;2023-01-08T08:07:36;9.90;99.90
24645;DHT22;12780;45.502;9.146;2023-01-08T08:10:03;9.80;99.90
24645;DHT22;12780;45.502;9.146;2023-01-08T08:12:29;9.90;99.90
24645;DHT22;12780;45.502;9.146;2023-01-08T08:14:54;9.90;99.90
24645;DHT22;12780;45.502;9.146;2023-01-08T08:17:20;9.90;99.90
24645;DHT22;12780;45.502;9.146;2023-01-08T08:19:45;9.90;99.90
24645;DHT22;12780;45.502;9.146;2023-01-08T08:22:12;9.90;99.90
24645;DHT22;12780;45.502;9.146;2023-01-08T08:24:37;9.90;99.90
24645;DHT22;12780;45.502;9.146;2023-01-08T08:27:03;9.80;99.90
24645;DHT22;12780;45.502;9.146;2023-01-08T08:29:29;9.90;99.90
24645;DHT22;12780;45.502;9.146;2023-01-08T08:31:54;9.90;99.90
24645;DHT22;12780;45.502;9.146;2023-01-08T08:34:20;9.90;99.90
24645;DHT22;12780;45.502;9.146;2023-01-08T08:36:49;9.90;99.90
24645;DHT22;12780;45.502;9.146;2023-01-08T08:39:15;9.80;99.90
24645;DHT22;12780;45.502;9.146;2023-01-08T08:41:41;9.80;99.90
24645;DHT22;12780;45.502;9.146;2023-01-08T08:44:09;9.80;99.90
24645;DHT22;12780;45.502;9.146;2023-01-08T08:46:34;9.90;99.90
24645;DHT22;12780;45.502;9.146;2023-01-08T08:49:00;9.90;99.90
24645;DHT22;12780;45.502;9.146;2023-01-08T08:51:26;9.90;99.90
24645;DHT22;12780;45.502;9.146;2023-01-08T08:53:51;9.90;99.90
24645;DHT22;12780;45.502;9.146;2023-01-08T08:56:17;10.00;99.90
24645;DHT22;12780;45.502;9.146;2023-01-08T08:58:43;10.00;99.90
24645;DHT22;12780;45.502;9.146;2023-01-08T09:01:09;9.90;99.90
24645;DHT22;12780;45.502;9.146;2023-01-08T09:03:35;9.90;99.90
24645;DHT22;12780;45.502;9.146;2023-01-08T09:06:01;9.90;99.90
24645;DHT22;12780;45.502;9.146;2023-01-08T09:08:26;9.90;99.90
24645;DHT22;12780;45.502;9.146;2023-01-08T09:10:52;9.90;99.90
24645;DHT22;12780;45.502;9.146;2023-01-08T09:13:17;9.90;99.90
24645;DHT22;12780;45.502;9.146;2023-01-08T09:15:43;10.00;99.90
24645;DHT22;12780;45.502;9.146;2023-01-08T09:18:09;10.00;99.90
24645;DHT22;12780;45.502;9.146;2023-01-08T09:20:35;10.00;99.90
24645;DHT22;12780;45.502;9.146;2023-01-08T09:23:01;9.90;99.90
24645;DHT22;12780;45.502;9.146;2023-01-08T09:25:28;10.10;99.90
24645;DHT22;12780;45.502;9.146;2023-01-08T09:28:07;10.00;99.90
24645;DHT22;12780;45.502;9.146;2023-01-08T09:30:34;10.00;99.90
24645;DHT22;12780;45.502;9.146;2023-01-08T09:33:01;10.00;99.90
24645;DHT22;12780;45.502;9.146;2023-01-08T09:35:27;10.00;99.90
24645;DHT22;12780;45.502;9.146;2023-01-08T09:37:53;10.00;99.90
24645;DHT22;12780;45.502;9.146;2023-01-08T09:40:31;10.00;99.90
24645;DHT22;12780;45.502;9.146;2023-01-08T09:42:59;10.00;99.90
24645;DHT22;12780;45.502;9.146;2023-01-08T09:45:34;9.90;99.90
24645;DHT22;12780;45.502;9.146;2023-01-08T09:48:10;9.80;99.90
24645;DHT22;12780;45.502;9.146;2023-01-08T09:50:37;9.70;99.90
24645;DHT22;12780;45.502;9.146;2023-01-08T09:53:03;9.60;99.90
24645;DHT22;12780;45.502;9.146;2023-01-08T09:55:32;9.60;99.90
24645;DHT22;12780;45.502;9.146;2023-01-08T09:57:58;9.50;99.90
24645;DHT22;12780;45.502;9.146;2023-01-08T10:00:28;9.50;99.90
24645;DHT22;12780;45.502;9.146;2023-01-08T10:02:54;9.60;99.90
24645;DHT22;12780;45.502;9.146;2023-01-08T10:05:20;9.50;99.90
24645;DHT22;12780;45.502;9.146;2023-01-08T10:07:45;9.50;99.90
24645;DHT22;12780;45.502;9.146;2023-01-08T10:10:22;9.50;99.90
24645;DHT22;12780;45.502;9.146;2023-01-08T10:12:50;9.40;99.90
24645;DHT22;12780;45.502;9.146;2023-01-08T10:15:18;9.40;99.90
24645;DHT22;12780;45.502;9.146;2023-01-08T10:18:03;9.50;99.90
24645;DHT22;12780;45.502;9.146;2023-01-08T10:20:31;9.40;99.90
24645;DHT22;12780;45.502;9.146;2023-01-08T10:23:17;9.40;99.90
24645;DHT22;12780;45.502;9.146;2023-01-08T10:26:02;9.40;99.90
24645;DHT22;12780;45.502;9.146;2023-01-08T10:28:29;9.60;99.90
24645;DHT22;12780;45.502;9.146;2023-01-08T10:33:45;9.70;99.90
24645;DHT22;12780;45.502;9.146;2023-01-08T10:36:13;9.80;99.90
24645;DHT22;12780;45.502;9.146;2023-01-08T10:41:18;9.80;99.90
24645;DHT22;12780;45.502;9.146;2023-01-08T10:44:03;9.80;99.90
24645;DHT22;12780;45.502;9.146;2023-01-08T10:46:41;9.70;99.90
24645;DHT22;12780;45.502;9.146;2023-01-08T10:51:52;9.70;99.90
24645;DHT22;12780;45.502;9.146;2023-01-08T10:54:31;9.60;99.90
24645;DHT22;12780;45.502;9.146;2023-01-08T10:56:58;9.70;99.90
24645;DHT22;12780;45.502;9.146;2023-01-08T10:59:24;9.70;99.90
24645;DHT22;12780;45.502;9.146;2023-01-08T11:01:52;9.80;99.90
24645;DHT22;12780;45.502;9.146;2023-01-08T11:04:33;9.90;99.90
24645;DHT22;12780;45.502;9.146;2023-01-08T11:07:02;9.90;99.90
24645;DHT22;12780;45.502;9.146;2023-01-08T11:09:37;10.00;99.90
24645;DHT22;12780;45.502;9.146;2023-01-08T11:12:04;10.10;99.90
24645;DHT22;12780;45.502;9.146;2023-01-08T11:14:45;10.10;99.90
24645;DHT22;12780;45.502;9.146;2023-01-08T11:17:11;10.10;99.90
24645;DHT22;12780;45.502;9.146;2023-01-08T11:19:37;10.00;99.90
24645;DHT22;12780;45.502;9.146;2023-01-08T11:25:00;9.50;99.90
24645;DHT22;12780;45.502;9.146;2023-01-08T11:27:39;9.40;99.90
24645;DHT22;12780;45.502;9.146;2023-01-08T11:30:12;9.40;99.90
24645;DHT22;12780;45.502;9.146;2023-01-08T11:32:51;9.50;99.90
24645;DHT22;12780;45.502;9.146;2023-01-08T11:35:24;9.60;99.90
24645;DHT22;12780;45.502;9.146;2023-01-08T11:37:51;9.40;99.90
24645;DHT22;12780;45.502;9.146;2023-01-08T11:40:28;9.40;99.90
24645;DHT22;12780;45.502;9.146;2023-01-08T12:02:18;8.90;99.90
24645;DHT22;12780;45.502;9.146;2023-01-08T12:07:32;8.90;99.90
24645;DHT22;12780;45.502;9.146;2023-01-08T12:10:12;9.00;99.90
24645;DHT22;12780;45.502;9.146;2023-01-08T12:18:43;9.00;99.90
24645;DHT22;12780;45.502;9.146;2023-01-08T12:21:30;9.10;99.90
24645;DHT22;12780;45.502;9.146;2023-01-08T12:24:08;9.20;99.90
24645;DHT22;12780;45.502;9.146;2023-01-08T12:27:00;9.10;99.90
24645;DHT22;12780;45.502;9.146;2023-01-08T12:32:13;9.10;99.90
24645;DHT22;12780;45.502;9.146;2023-01-08T12:34:44;9.20;99.90
24645;DHT22;12780;45.502;9.146;2023-01-08T12:40:33;9.30;99.90
24645;DHT22;12780;45.502;9.146;2023-01-08T12:43:05;9.30;99.90
24645;DHT22;12780;45.502;9.146;2023-01-08T12:45:43;9.40;99.90
24645;DHT22;12780;45.502;9.146;2023-01-08T12:48:22;9.50;99.90
24645;DHT22;12780;45.502;9.146;2023-01-08T12:54:00;9.40;99.90
24645;DHT22;12780;45.502;9.146;2023-01-08T13:02:23;9.30;99.90
24645;DHT22;12780;45.502;9.146;2023-01-08T13:04:52;9.30;99.90
24645;DHT22;12780;45.502;9.146;2023-01-08T13:07:22;9.40;99.90
24645;DHT22;12780;45.502;9.146;2023-01-08T13:10:03;9.40;99.90
24645;DHT22;12780;45.502;9.146;2023-01-08T13:12:35;9.60;99.90
24645;DHT22;12780;45.502;9.146;2023-01-08T13:15:02;9.70;99.90
24645;DHT22;12780;45.502;9.146;2023-01-08T13:17:28;9.60;99.90
24645;DHT22;12780;45.502;9.146;2023-01-08T13:20:02;9.60;99.90
24645;DHT22;12780;45.502;9.146;2023-01-08T13:22:29;9.60;99.90
24645;DHT22;12780;45.502;9.146;2023-01-08T13:25:09;9.60;99.90
24645;DHT22;12780;45.502;9.146;2023-01-08T13:27:35;9.60;99.90
24645;DHT22;12780;45.502;9.146;2023-01-08T13:30:01;9.60;99.90
24645;DHT22;12780;45.502;9.146;2023-01-08T13:32:46;9.60;99.90
24645;DHT22;12780;45.502;9.146;2023-01-08T13:37:41;9.50;99.90
24645;DHT22;12780;45.502;9.146;2023-01-08T13:43:09;9.50;99.90
24645;DHT22;12780;45.502;9.146;2023-01-08T13:45:36;9.50;99.90
24645;DHT22;12780;45.502;9.146;2023-01-08T13:48:02;9.50;99.90
24645;DHT22;12780;45.502;9.146;2023-01-08T13:50:28;9.50;99.90
24645;DHT22;12780;45.502;9.146;2023-01-08T13:53:02;9.50;99.90
24645;DHT22;12780;45.502;9.146;2023-01-08T13:55:32;9.40;99.90
24645;DHT22;12780;45.502;9.146;2023-01-08T13:58:00;9.40;99.90
24645;DHT22;12780;45.502;9.146;2023-01-08T14:00:53;9.40;99.90
24645;DHT22;12780;45.502;9.146;2023-01-08T14:03:43;9.30;99.90
24645;DHT22;12780;45.502;9.146;2023-01-08T14:08:55;9.40;99.90
24645;DHT22;12780;45.502;9.146;2023-01-08T14:11:36;9.40;99.90
24645;DHT22;12780;45.502;9.146;2023-01-08T14:14:03;9.30;99.90
24645;DHT22;12780;45.502;9.146;2023-01-08T14:16:29;9.20;99.90
24645;DHT22;12780;45.502;9.146;2023-01-08T14:19:00;9.20;99.90
24645;DHT22;12780;45.502;9.146;2023-01-08T14:21:26;9.20;99.90
24645;DHT22;12780;45.502;9.146;2023-01-08T14:23:52;9.20;99.90
24645;DHT22;12780;45.502;9.146;2023-01-08T14:26:33;9.10;99.90
24645;DHT22;12780;45.502;9.146;2023-01-08T14:29:18;9.10;99.90
24645;DHT22;12780;45.502;9.146;2023-01-08T14:31:51;9.20;99.90
24645;DHT22;12780;45.502;9.146;2023-01-08T14:34:19;9.20;99.90
24645;DHT22;12780;45.502;9.146;2023-01-08T14:36:46;9.20;99.90
24645;DHT22;12780;45.502;9.146;2023-01-08T14:39:25;9.30;99.90
24645;DHT22;12780;45.502;9.146;2023-01-08T14:42:04;9.20;99.90
24645;DHT22;12780;45.502;9.146;2023-01-08T14:44:54;9.20;99.90
24645;DHT22;12780;45.502;9.146;2023-01-08T14:47:20;9.20;99.90
24645;DHT22;12780;45.502;9.146;2023-01-08T14:49:51;9.10;99.90
24645;DHT22;12780;45.502;9.146;2023-01-08T14:52:18;9.00;99.90
24645;DHT22;12780;45.502;9.146;2023-01-08T14:54:48;9.10;99.90
24645;DHT22;12780;45.502;9.146;2023-01-08T14:57:16;9.10;99.90
24645;DHT22;12780;45.502;9.146;2023-01-08T14:59:52;9.10;99.90
24645;DHT22;12780;45.502;9.146;2023-01-08T15:02:25;9.10;99.90
24645;DHT22;12780;45.502;9.146;2023-01-08T15:05:02;9.00;99.90
24645;DHT22;12780;45.502;9.146;2023-01-08T15:07:28;9.00;99.90
24645;DHT22;12780;45.502;9.146;2023-01-08T15:09:55;9.00;99.90
24645;DHT22;12780;45.502;9.146;2023-01-08T15:12:24;9.10;99.90
24645;DHT22;12780;45.502;9.146;2023-01-08T15:14:50;9.10;99.90
24645;DHT22;12780;45.502;9.146;2023-01-08T15:17:18;9.10;99.90
24645;DHT22;12780;45.502;9.146;2023-01-08T15:19:46;9.10;99.90
24645;DHT22;12780;45.502;9.146;2023-01-08T15:22:27;9.10;99.90
24645;DHT22;12780;45.502;9.146;2023-01-08T15:25:02;9.10;99.90
24645;DHT22;12780;45.502;9.146;2023-01-08T15:27:28;9.00;99.90
24645;DHT22;12780;45.502;9.146;2023-01-08T15:30:02;9.10;99.90
24645;DHT22;12780;45.502;9.146;2023-01-08T15:32:33;9.10;99.90
24645;DHT22;12780;45.502;9.146;2023-01-08T15:35:03;9.10;99.90
24645;DHT22;12780;45.502;9.146;2023-01-08T15:37:37;9.20;99.90
24645;DHT22;12780;45.502;9.146;2023-01-08T15:40:02;9.20;99.90
24645;DHT22;12780;45.502;9.146;2023-01-08T15:42:31;9.20;99.90
24645;DHT22;12780;45.502;9.146;2023-01-08T15:45:18;9.20;99.90
24645;DHT22;12780;45.502;9.146;2023-01-08T15:47:44;9.20;99.90
24645;DHT22;12780;45.502;9.146;2023-01-08T15:50:10;9.20;99.90
24645;DHT22;12780;45.502;9.146;2023-01-08T15:52:37;9.20;99.90
24645;DHT22;12780;45.502;9.146;2023-01-08T15:55:04;9.30;99.90
24645;DHT22;12780;45.502;9.146;2023-01-08T15:57:30;9.30;99.90
24645;DHT22;12780;45.502;9.146;2023-01-08T15:59:55;9.40;99.90
24645;DHT22;12780;45.502;9.146;2023-01-08T16:02:21;9.40;99.90
24645;DHT22;12780;45.502;9.146;2023-01-08T16:04:54;9.40;99.90
24645;DHT22;12780;45.502;9.146;2023-01-08T16:07:20;9.40;99.90
24645;DHT22;12780;45.502;9.146;2023-01-08T16:09:46;9.40;99.90
24645;DHT22;12780;45.502;9.146;2023-01-08T16:12:11;9.30;99.90
24645;DHT22;12780;45.502;9.146;2023-01-08T16:14:37;9.30;99.90
24645;DHT22;12780;45.502;9.146;2023-01-08T16:17:04;9.30;99.90
24645;DHT22;12780;45.502;9.146;2023-01-08T16:19:30;9.30;99.90
24645;DHT22;12780;45.502;9.146;2023-01-08T16:21:56;9.30;99.90
24645;DHT22;12780;45.502;9.146;2023-01-08T16:24:22;9.20;99.90
24645;DHT22;12780;45.502;9.146;2023-01-08T16:26:47;9.30;99.90
24645;DHT22;12780;45.502;9.146;2023-01-08T16:29:13;9.30;99.90
24645;DHT22;12780;45.502;9.146;2023-01-08T16:31:46;9.20;99.90
24645;DHT22;12780;45.502;9.146;2023-01-08T16:34:14;9.30;99.90
24645;DHT22;12780;45.502;9.146;2023-01-08T16:36:40;9.40;99.90
24645;DHT22;12780;45.502;9.146;2023-01-08T16:39:06;9.40;99.90
24645;DHT22;12780;45.502;9.146;2023-01-08T16:41:31;9.40;99.90
24645;DHT22;12780;45.502;9.146;2023-01-08T16:43:57;9.30;99.90
24645;DHT22;12780;45.502;9.146;2023-01-08T16:46:23;9.30;99.90
24645;DHT22;12780;45.502;9.146;2023-01-08T16:48:49;9.20;99.90
24645;DHT22;12780;45.502;9.146;2023-01-08T16:51:15;9.20;99.90
24645;DHT22;12780;45.502;9.146;2023-01-08T16:53:41;9.20;99.90
24645;DHT22;12780;45.502;9.146;2023-01-08T16:56:07;9.10;99.90
24645;DHT22;12780;45.502;9.146;2023-01-08T16:58:33;9.10;99.90
24645;DHT22;12780;45.502;9.146;2023-01-08T17:01:07;9.10;99.90